Time;durP1;ratioP1;P1;durP2;ratioP2;P2;SDS_P1;SDS_P2;PMS_P1;PMS_P2;Temp;Humidity;BMP_temperature;BMP_pressure;BME280_temperature;BME280_humidity;BME280_pressure;Samples;Min_cycle;Max_cycle;Signal;HPM_P1;HPM_P2
2021/05/17 00:01:28;;;;;;;0.87;0.80;;;14.10;99.90;;;;;;5046928;28;20204;-76
2021/05/17 00:03:54;;;;;;;1.37;0.60;;;14.10;99.90;;;;;;5047045;28;20307;-76
2021/05/17 00:06:22;;;;;;;0.90;0.90;;;14.00;99.90;;;;;;5046847;28;20747;-77
2021/05/17 00:08:49;;;;;;;0.90;0.90;;;14.00;99.90;;;;;;5047147;28;21011;-77
2021/05/17 00:11:15;;;;;;;1.30;0.90;;;14.00;99.90;;;;;;5047000;28;20200;-77
2021/05/17 00:13:42;;;;;;;1.20;0.90;;;14.00;99.90;;;;;;5046777;28;20208;-76
2021/05/17 00:16:09;;;;;;;1.07;1.00;;;13.90;99.90;;;;;;5046785;28;20242;-75
2021/05/17 00:18:35;;;;;;;1.13;1.03;;;13.90;99.90;;;;;;5046860;28;20582;-76
2021/05/17 00:21:02;;;;;;;0.80;0.80;;;13.90;99.90;;;;;;5046920;28;20219;-76
2021/05/17 00:23:29;;;;;;;2.83;1.00;;;13.90;99.90;;;;;;5046612;28;20242;-76
2021/05/17 00:25:56;;;;;;;0.70;0.70;;;13.90;99.90;;;;;;5046285;28;20697;-78
2021/05/17 00:28:22;;;;;;;0.87;0.80;;;13.90;99.90;;;;;;5046009;28;20200;-78
2021/05/17 00:30:49;;;;;;;1.23;1.00;;;13.90;99.90;;;;;;5046529;28;20247;-78
2021/05/17 00:33:15;;;;;;;1.40;0.90;;;13.90;99.90;;;;;;5046724;28;20217;-78
2021/05/17 00:35:42;;;;;;;1.00;1.00;;;13.90;99.90;;;;;;5046544;28;20216;-77
2021/05/17 00:38:09;;;;;;;2.50;0.97;;;13.90;99.90;;;;;;5046585;28;20227;-77
2021/05/17 00:40:36;;;;;;;0.90;0.80;;;13.80;99.90;;;;;;5046196;28;20236;-78
2021/05/17 00:43:06;;;;;;;0.73;0.73;;;13.80;99.90;;;;;;5046577;28;20208;-79
2021/05/17 00:45:33;;;;;;;0.80;0.80;;;13.80;99.90;;;;;;5046415;28;20284;-78
2021/05/17 00:48:00;;;;;;;2.70;1.13;;;13.70;99.90;;;;;;5046250;27;20255;-79
2021/05/17 00:50:28;;;;;;;1.00;0.90;;;13.70;99.90;;;;;;5046327;28;20212;-78
2021/05/17 00:52:56;;;;;;;0.97;0.97;;;13.70;99.90;;;;;;5046516;28;20210;-78
2021/05/17 00:55:23;;;;;;;0.97;0.97;;;13.60;99.90;;;;;;5046573;28;20209;-78
2021/05/17 00:57:51;;;;;;;1.00;0.90;;;13.60;99.90;;;;;;5046327;28;20300;-78
2021/05/17 01:00:23;;;;;;;1.40;1.00;;;13.60;99.90;;;;;;5046385;28;20229;-78
2021/05/17 01:02:49;;;;;;;0.73;0.73;;;13.60;99.90;;;;;;5046096;28;20227;-78
2021/05/17 01:05:15;;;;;;;0.90;0.73;;;13.50;99.90;;;;;;5046171;28;20273;-78
2021/05/17 01:07:46;;;;;;;1.03;1.00;;;13.60;99.90;;;;;;5046262;28;20227;-78
2021/05/17 01:10:15;;;;;;;0.73;0.63;;;13.50;99.90;;;;;;5046324;28;20212;-78
2021/05/17 01:12:44;;;;;;;1.10;0.87;;;13.50;99.90;;;;;;5046063;28;20863;-78
2021/05/17 01:15:14;;;;;;;0.97;0.60;;;13.50;99.90;;;;;;5031700;28;20232;-78
2021/05/17 01:17:41;;;;;;;2.00;1.00;;;13.50;99.90;;;;;;5025816;28;20216;-79
2021/05/17 01:20:09;;;;;;;0.87;0.80;;;13.40;99.90;;;;;;5026267;28;20197;-79
2021/05/17 01:22:47;;;;;;;0.93;0.93;;;13.40;99.90;;;;;;5026110;28;20208;-79
2021/05/17 01:25:16;;;;;;;1.17;0.87;;;13.40;99.90;;;;;;5025979;28;20702;-78
2021/05/17 01:27:43;;;;;;;0.93;0.93;;;13.40;99.90;;;;;;5025726;28;20655;-78
2021/05/17 01:30:10;;;;;;;1.33;1.17;;;13.40;99.90;;;;;;5026061;28;20216;-77
2021/05/17 01:32:37;;;;;;;0.93;0.90;;;13.30;99.90;;;;;;5025881;28;20208;-77
2021/05/17 01:35:04;;;;;;;1.17;0.77;;;13.30;99.90;;;;;;5025883;28;20212;-78
2021/05/17 01:37:33;;;;;;;1.10;1.00;;;13.20;99.90;;;;;;5025541;28;20215;-78
2021/05/17 01:40:00;;;;;;;0.90;0.90;;;12.90;99.90;;;;;;5026288;28;20247;-78
2021/05/17 01:42:28;;;;;;;1.27;1.17;;;12.70;99.90;;;;;;5029095;28;20663;-78
2021/05/17 01:44:55;;;;;;;1.20;1.20;;;12.80;99.90;;;;;;5029475;28;20616;-78
2021/05/17 01:47:23;;;;;;;1.20;1.20;;;12.80;99.90;;;;;;5029270;28;20208;-76
2021/05/17 01:49:51;;;;;;;1.13;1.10;;;12.90;99.90;;;;;;5029146;28;20215;-75
2021/05/17 01:52:19;;;;;;;1.17;1.17;;;13.00;99.90;;;;;;5029316;28;20209;-75
2021/05/17 01:54:49;;;;;;;1.33;1.20;;;13.10;99.90;;;;;;5029108;28;20285;-75
2021/05/17 01:57:15;;;;;;;1.00;1.00;;;13.10;99.90;;;;;;5029154;28;20216;-78
2021/05/17 01:59:43;;;;;;;1.47;0.90;;;13.10;99.90;;;;;;5029100;28;20254;-78
2021/05/17 02:02:10;;;;;;;2.50;1.20;;;13.10;99.90;;;;;;5029102;28;20261;-78
2021/05/17 02:04:37;;;;;;;0.87;0.87;;;13.20;99.90;;;;;;5029070;28;20220;-77
2021/05/17 02:07:04;;;;;;;1.00;1.00;;;13.20;99.90;;;;;;5028953;28;20546;-78
2021/05/17 02:09:32;;;;;;;1.10;1.10;;;13.30;99.90;;;;;;5029075;28;20200;-78
2021/05/17 02:12:00;;;;;;;1.40;1.13;;;13.30;99.90;;;;;;5029094;28;20201;-77
2021/05/17 02:14:28;;;;;;;1.60;1.30;;;13.30;99.90;;;;;;5029073;28;20213;-77
2021/05/17 02:16:55;;;;;;;1.20;1.17;;;13.30;99.90;;;;;;5028757;28;20216;-77
2021/05/17 02:19:22;;;;;;;1.30;1.20;;;13.30;99.90;;;;;;5028951;28;20205;-78
2021/05/17 02:21:49;;;;;;;3.23;1.30;;;13.30;99.90;;;;;;5028475;28;20215;-78
2021/05/17 02:24:16;;;;;;;1.30;1.10;;;13.00;99.90;;;;;;5028775;28;20228;-77
2021/05/17 02:26:43;;;;;;;1.10;1.10;;;12.80;99.90;;;;;;5028380;28;20737;-78
2021/05/17 02:29:11;;;;;;;1.27;1.27;;;12.70;99.90;;;;;;5028716;28;20219;-80
2021/05/17 02:31:38;;;;;;;1.07;1.07;;;12.70;99.90;;;;;;5028490;28;20209;-78
2021/05/17 02:34:06;;;;;;;1.40;1.30;;;12.70;99.90;;;;;;5028679;28;20208;-78
2021/05/17 02:36:32;;;;;;;1.50;1.40;;;12.40;99.90;;;;;;5028493;28;20205;-79
2021/05/17 02:38:59;;;;;;;1.90;1.80;;;12.40;99.90;;;;;;5028149;28;20229;-79
2021/05/17 02:41:27;;;;;;;2.30;1.90;;;12.30;99.90;;;;;;5028428;28;20216;-78
2021/05/17 02:43:55;;;;;;;2.33;2.00;;;12.40;99.90;;;;;;5028584;28;20205;-78
2021/05/17 02:46:22;;;;;;;1.70;1.60;;;12.50;99.90;;;;;;5028005;28;20686;-76
2021/05/17 02:48:50;;;;;;;2.87;1.80;;;12.60;99.90;;;;;;5028417;28;20209;-76
2021/05/17 02:51:17;;;;;;;1.70;1.60;;;12.40;99.90;;;;;;5027819;28;20682;-76
2021/05/17 02:54:07;;;;;;;1.60;1.57;;;12.60;99.90;;;;;;5028114;28;20529;-76
2021/05/17 02:56:36;;;;;;;1.77;1.67;;;12.60;99.90;;;;;;5028154;28;20201;-76
2021/05/17 02:59:04;;;;;;;1.60;1.60;;;12.70;99.90;;;;;;5028030;28;20201;-78
2021/05/17 03:01:37;;;;;;;1.73;1.60;;;12.80;99.90;;;;;;5027790;28;20659;-77
2021/05/17 03:04:12;;;;;;;2.43;1.80;;;12.80;99.90;;;;;;5028777;28;20648;-76
2021/05/17 03:06:41;;;;;;;1.87;1.70;;;12.90;99.90;;;;;;5038773;28;20271;-72
2021/05/17 03:09:09;;;;;;;1.90;1.70;;;12.90;99.90;;;;;;5042004;28;20196;-76
2021/05/17 03:11:37;;;;;;;1.70;1.60;;;12.90;99.90;;;;;;5037629;28;20574;-77
2021/05/17 03:14:05;;;;;;;1.87;1.73;;;13.00;99.90;;;;;;5032727;28;20204;-77
2021/05/17 03:16:32;;;;;;;1.93;1.80;;;13.00;99.90;;;;;;5025768;28;20221;-77
2021/05/17 03:18:59;;;;;;;1.60;1.50;;;13.00;99.90;;;;;;5025629;28;20246;-78
2021/05/17 03:21:28;;;;;;;1.70;1.60;;;13.00;99.90;;;;;;5025978;28;20699;-78
2021/05/17 03:23:56;;;;;;;1.53;1.43;;;13.10;99.90;;;;;;5026232;28;20201;-78
2021/05/17 03:26:25;;;;;;;1.87;1.77;;;13.00;99.90;;;;;;5026108;28;20236;-78
2021/05/17 03:28:51;;;;;;;2.53;1.40;;;13.00;99.90;;;;;;5033071;28;20204;-78
2021/05/17 03:31:18;;;;;;;1.80;1.70;;;13.00;99.90;;;;;;5035379;28;20197;-77
2021/05/17 03:33:45;;;;;;;2.13;1.50;;;13.00;99.90;;;;;;5033438;28;20201;-78
2021/05/17 03:36:11;;;;;;;2.37;2.17;;;13.00;99.90;;;;;;5034125;28;20242;-78
2021/05/17 03:38:38;;;;;;;3.07;2.53;;;13.00;99.90;;;;;;5032743;28;20213;-78
2021/05/17 03:41:05;;;;;;;3.07;2.87;;;13.00;99.90;;;;;;5045028;28;20218;-79
2021/05/17 03:43:31;;;;;;;1.90;1.80;;;12.90;99.90;;;;;;5025598;28;20209;-78
2021/05/17 03:45:58;;;;;;;1.90;1.80;;;12.90;99.90;;;;;;5025180;28;20232;-78
2021/05/17 03:48:24;;;;;;;4.00;1.80;;;13.00;99.90;;;;;;5036175;28;20247;-78
2021/05/17 03:50:50;;;;;;;2.50;2.30;;;13.00;99.90;;;;;;5044800;28;20848;-78
2021/05/17 03:53:17;;;;;;;2.17;2.00;;;13.00;99.90;;;;;;5045249;28;20263;-78
2021/05/17 03:55:43;;;;;;;2.83;1.80;;;12.90;99.90;;;;;;5044952;28;20356;-77
2021/05/17 03:58:10;;;;;;;2.00;1.90;;;12.90;99.90;;;;;;5044747;28;20204;-78
2021/05/17 04:00:36;;;;;;;2.20;2.00;;;13.00;99.90;;;;;;5040770;28;20216;-78
2021/05/17 04:03:11;;;;;;;2.47;1.70;;;12.90;99.90;;;;;;5028002;28;20213;-78
2021/05/17 04:05:43;;;;;;;2.07;1.90;;;12.80;99.90;;;;;;5033964;28;20208;-77
2021/05/17 04:12:28;;;;;;;2.80;2.10;;;12.90;99.90;;;;;;5044222;27;20200;-78
2021/05/17 04:13:57;;;;;;;1.60;1.50;;;12.90;99.90;;;;;;5036783;28;20566;-77
2021/05/17 04:16:23;;;;;;;1.77;1.67;;;12.90;99.90;;;;;;5038088;28;20208;-78
2021/05/17 04:18:52;;;;;;;1.33;1.33;;;12.90;99.90;;;;;;5035253;28;20229;-78
2021/05/17 04:21:18;;;;;;;1.90;1.80;;;12.90;99.90;;;;;;5034634;28;20254;-78
2021/05/17 04:23:44;;;;;;;2.00;1.90;;;12.90;99.90;;;;;;5033390;28;20258;-78
2021/05/17 04:26:10;;;;;;;2.23;1.47;;;12.80;99.90;;;;;;5032757;28;20228;-78
2021/05/17 04:28:37;;;;;;;1.67;1.57;;;12.90;99.90;;;;;;5031614;28;20240;-78
2021/05/17 04:31:04;;;;;;;1.60;1.50;;;12.90;99.90;;;;;;5034488;28;20243;-79
2021/05/17 04:33:30;;;;;;;4.83;1.53;;;12.90;99.90;;;;;;5035799;28;20201;-78
2021/05/17 04:35:56;;;;;;;1.50;1.50;;;12.90;99.90;;;;;;5033131;28;20253;-77
2021/05/17 04:38:22;;;;;;;2.00;1.83;;;12.90;99.90;;;;;;5033235;28;20197;-78
2021/05/17 04:40:48;;;;;;;1.33;1.33;;;13.00;99.90;;;;;;5035792;28;20212;-78
2021/05/17 04:43:14;;;;;;;1.70;1.60;;;12.80;99.90;;;;;;5036013;28;20216;-78
2021/05/17 04:45:40;;;;;;;1.50;1.40;;;12.90;99.90;;;;;;5035709;28;20229;-78
2021/05/17 04:48:08;;;;;;;1.73;1.40;;;12.90;99.90;;;;;;5035176;28;20698;-78
2021/05/17 04:50:34;;;;;;;1.37;1.27;;;13.00;99.90;;;;;;5034222;28;20281;-78
2021/05/17 04:53:01;;;;;;;1.90;1.30;;;13.10;99.90;;;;;;5033210;28;20232;-78
2021/05/17 04:55:27;;;;;;;1.83;1.37;;;13.10;99.90;;;;;;5035605;28;20201;-78
2021/05/17 04:57:53;;;;;;;1.67;1.57;;;13.00;99.90;;;;;;5035360;28;20201;-77
2021/05/17 05:00:20;;;;;;;1.60;1.50;;;12.90;99.90;;;;;;5034644;28;20236;-77
2021/05/17 05:02:46;;;;;;;1.10;1.10;;;12.80;99.90;;;;;;5034064;28;20211;-77
2021/05/17 05:05:14;;;;;;;1.30;1.20;;;12.70;99.90;;;;;;5036195;28;20255;-77
2021/05/17 05:07:40;;;;;;;1.10;1.00;;;12.80;99.90;;;;;;5032611;28;20940;-77
2021/05/17 05:10:07;;;;;;;1.30;1.20;;;12.80;99.90;;;;;;5035765;28;20720;-77
2021/05/17 05:12:34;;;;;;;1.13;1.13;;;12.80;99.90;;;;;;5033337;28;20207;-78
2021/05/17 05:15:00;;;;;;;1.10;1.10;;;12.50;99.90;;;;;;5033446;28;20289;-76
2021/05/17 05:17:26;;;;;;;1.57;1.50;;;12.30;99.90;;;;;;5027652;28;20667;-76
2021/05/17 05:19:52;;;;;;;3.40;1.50;;;12.30;99.90;;;;;;5033898;27;20223;-78
2021/05/17 05:22:19;;;;;;;1.80;1.30;;;12.20;99.90;;;;;;5033023;28;20239;-78
2021/05/17 05:24:46;;;;;;;1.27;1.23;;;12.10;99.90;;;;;;5028741;28;20221;-78
2021/05/17 05:27:17;;;;;;;1.50;1.40;;;12.10;99.90;;;;;;5041909;28;20200;-77
2021/05/17 05:29:57;;;;;;;1.30;1.20;;;12.10;99.90;;;;;;5035314;28;20197;-77
2021/05/17 05:32:29;;;;;;;0.80;0.80;;;12.10;99.90;;;;;;5031745;28;20770;-77
2021/05/17 05:34:56;;;;;;;1.27;0.83;;;12.20;99.90;;;;;;5032092;28;20197;-77
2021/05/17 05:37:23;;;;;;;1.37;1.27;;;12.10;99.90;;;;;;5038061;28;20208;-77
2021/05/17 05:39:49;;;;;;;2.00;1.00;;;12.00;99.90;;;;;;5041747;28;20236;-77
2021/05/17 05:42:15;;;;;;;1.17;1.13;;;12.20;99.90;;;;;;5033865;28;20209;-77
2021/05/17 05:44:43;;;;;;;1.10;1.10;;;12.20;99.90;;;;;;5038902;28;20841;-77
2021/05/17 05:47:14;;;;;;;1.60;0.97;;;12.20;99.90;;;;;;5027894;28;20200;-77
2021/05/17 05:49:40;;;;;;;1.03;0.90;;;12.20;99.90;;;;;;5043166;28;20200;-77
2021/05/17 05:52:06;;;;;;;1.50;0.73;;;12.20;99.90;;;;;;5039617;28;20197;-77
2021/05/17 05:54:34;;;;;;;1.50;0.80;;;12.20;99.90;;;;;;5035906;28;20255;-77
2021/05/17 05:57:00;;;;;;;1.13;1.10;;;12.30;99.90;;;;;;5031846;28;20225;-77
2021/05/17 05:59:26;;;;;;;0.70;0.60;;;12.40;99.90;;;;;;5033000;28;20211;-77
2021/05/17 06:01:52;;;;;;;1.90;0.83;;;12.60;99.90;;;;;;5034890;28;20204;-77
2021/05/17 06:04:20;;;;;;;1.10;0.90;;;12.70;99.90;;;;;;5036793;28;20211;-77
2021/05/17 06:06:46;;;;;;;0.73;0.73;;;12.80;99.90;;;;;;5036005;28;20280;-77
2021/05/17 06:09:13;;;;;;;1.00;0.73;;;13.00;99.90;;;;;;5030748;28;20568;-77
2021/05/17 06:11:40;;;;;;;1.63;0.87;;;13.00;99.90;;;;;;5033158;28;20201;-77
2021/05/17 06:14:08;;;;;;;1.17;1.07;;;12.80;99.90;;;;;;5030630;28;20240;-77
2021/05/17 06:16:35;;;;;;;1.30;0.90;;;12.80;99.90;;;;;;5032262;28;20922;-78
2021/05/17 06:19:01;;;;;;;0.80;0.73;;;12.80;99.90;;;;;;5032147;28;20204;-78
2021/05/17 06:21:28;;;;;;;0.60;0.60;;;12.70;99.90;;;;;;5033201;28;20241;-77
2021/05/17 06:23:58;;;;;;;1.00;0.90;;;12.70;99.90;;;;;;5028756;28;20219;-76
2021/05/17 06:26:25;;;;;;;0.67;0.53;;;12.70;99.90;;;;;;5028382;28;20233;-78
2021/05/17 06:28:52;;;;;;;0.60;0.60;;;12.70;99.90;;;;;;5038505;28;20204;-77
2021/05/17 06:31:20;;;;;;;3.33;0.70;;;12.60;99.90;;;;;;5037955;28;20200;-77
2021/05/17 06:33:47;;;;;;;1.37;0.60;;;12.70;99.90;;;;;;5037852;28;20203;-77
2021/05/17 06:36:15;;;;;;;1.37;0.70;;;12.70;99.90;;;;;;5038244;27;20207;-76
2021/05/17 06:38:41;;;;;;;1.37;0.80;;;12.90;99.90;;;;;;5034520;27;20197;-77
2021/05/17 06:41:08;;;;;;;2.10;1.00;;;12.90;99.90;;;;;;5039383;28;20197;-77
2021/05/17 06:43:35;;;;;;;0.80;0.80;;;13.00;99.90;;;;;;5036240;27;20607;-77
2021/05/17 06:46:03;;;;;;;0.70;0.70;;;13.20;99.90;;;;;;5036885;28;20230;-77
2021/05/17 06:48:29;;;;;;;1.30;1.00;;;13.20;99.90;;;;;;5038082;28;20204;-76
2021/05/17 06:50:56;;;;;;;0.80;0.80;;;13.30;99.90;;;;;;5035829;28;20254;-78
2021/05/17 06:53:24;;;;;;;1.83;1.20;;;13.40;99.90;;;;;;5037085;28;20237;-78
2021/05/17 06:55:59;;;;;;;0.77;0.70;;;13.40;99.90;;;;;;5035829;28;20255;-77
2021/05/17 06:58:28;;;;;;;0.63;0.63;;;13.40;99.90;;;;;;5038639;27;20220;-77
2021/05/17 07:00:55;;;;;;;1.07;0.77;;;13.50;99.90;;;;;;5036815;27;20212;-77
2021/05/17 07:03:24;;;;;;;0.60;0.60;;;13.50;99.90;;;;;;5036792;28;20205;-78
2021/05/17 07:05:53;;;;;;;1.40;0.73;;;13.50;99.90;;;;;;5035773;28;20237;-80
2021/05/17 07:13:47;;;;;;;1.27;0.63;;;13.70;99.90;;;;;;5030874;28;20308;-79
2021/05/17 07:16:14;;;;;;;1.23;0.60;;;13.70;99.90;;;;;;5031951;28;20220;-79
2021/05/17 07:18:41;;;;;;;2.60;0.60;;;13.70;99.90;;;;;;5046781;28;20216;-79
2021/05/17 07:23:52;;;;;;;0.83;0.67;;;13.70;99.90;;;;;;5035588;28;20207;-84
2021/05/17 07:26:19;;;;;;;0.70;0.70;;;13.70;99.90;;;;;;5027555;28;20771;-84
2021/05/17 07:28:49;;;;;;;0.97;0.70;;;13.80;99.90;;;;;;5037499;28;20228;-80
2021/05/17 07:31:15;;;;;;;1.43;0.40;;;13.80;99.90;;;;;;5038270;28;20204;-80
2021/05/17 07:33:42;;;;;;;0.63;0.50;;;13.90;99.90;;;;;;5036315;28;20650;-80
2021/05/17 07:36:09;;;;;;;0.70;0.60;;;14.00;99.90;;;;;;5036525;27;20657;-80
2021/05/17 07:38:37;;;;;;;0.70;0.50;;;14.00;99.90;;;;;;5037343;28;20211;-79
2021/05/17 07:41:04;;;;;;;5.87;1.00;;;14.00;99.90;;;;;;5036402;28;20205;-79
2021/05/17 07:43:30;;;;;;;0.53;0.50;;;14.10;99.90;;;;;;5035906;28;20201;-79
2021/05/17 07:45:57;;;;;;;0.33;0.33;;;14.20;99.90;;;;;;5035266;28;20228;-79
2021/05/17 07:48:23;;;;;;;1.40;0.63;;;14.10;99.90;;;;;;5035031;28;20205;-80
2021/05/17 07:50:50;;;;;;;1.63;0.50;;;14.10;99.90;;;;;;5036489;28;20620;-80
2021/05/17 07:53:16;;;;;;;0.67;0.30;;;14.20;99.90;;;;;;5035103;28;20538;-80
2021/05/17 07:55:44;;;;;;;1.23;0.60;;;14.20;99.90;;;;;;5035939;28;20247;-80
2021/05/17 07:58:10;;;;;;;0.50;0.50;;;14.30;99.90;;;;;;5036957;28;20454;-80
2021/05/17 08:00:37;;;;;;;0.87;0.50;;;14.30;99.90;;;;;;5035128;28;20621;-79
2021/05/17 08:03:06;;;;;;;0.30;0.30;;;14.50;99.90;;;;;;5035349;28;20201;-80
2021/05/17 08:05:32;;;;;;;0.50;0.50;;;14.50;99.90;;;;;;5036245;28;20315;-80
2021/05/17 08:08:00;;;;;;;0.30;0.30;;;14.50;99.90;;;;;;5033696;28;20253;-80
2021/05/17 08:10:26;;;;;;;1.30;0.50;;;14.50;99.90;;;;;;5033833;28;20200;-80
2021/05/17 08:12:52;;;;;;;0.50;0.50;;;14.60;99.90;;;;;;5036317;28;20618;-79
2021/05/17 08:15:19;;;;;;;0.97;0.60;;;14.70;99.90;;;;;;5039784;28;20281;-79
2021/05/17 08:17:46;;;;;;;0.73;0.37;;;14.80;99.90;;;;;;5037925;28;20258;-81
2021/05/17 08:20:13;;;;;;;0.50;0.50;;;14.80;99.90;;;;;;5027379;28;20216;-81
2021/05/17 08:22:39;;;;;;;0.50;0.40;;;14.90;99.90;;;;;;5037293;28;20203;-80
2021/05/17 08:25:07;;;;;;;0.57;0.40;;;15.00;99.90;;;;;;5033522;28;20231;-79
2021/05/17 08:27:34;;;;;;;1.20;0.40;;;15.10;99.90;;;;;;5035623;28;20211;-80
2021/05/17 08:30:00;;;;;;;0.50;0.23;;;15.10;99.90;;;;;;5036340;28;20408;-80
2021/05/17 08:32:26;;;;;;;0.60;0.53;;;15.10;99.90;;;;;;5035493;28;20238;-80
2021/05/17 08:34:52;;;;;;;0.40;0.40;;;15.10;99.90;;;;;;5033329;28;20204;-80
2021/05/17 08:37:19;;;;;;;0.37;0.37;;;15.00;99.90;;;;;;5034075;28;20659;-80
2021/05/17 08:39:45;;;;;;;0.43;0.43;;;15.00;99.90;;;;;;5033549;28;20224;-80
2021/05/17 08:42:12;;;;;;;0.30;0.30;;;15.10;99.90;;;;;;5033804;28;20212;-79
2021/05/17 08:44:39;;;;;;;1.70;0.50;;;15.20;99.90;;;;;;5036979;28;20204;-80
2021/05/17 08:47:05;;;;;;;0.47;0.47;;;15.10;99.90;;;;;;5034272;28;20202;-80
2021/05/17 08:49:31;;;;;;;0.50;0.40;;;15.10;99.90;;;;;;5034854;28;20208;-80
2021/05/17 08:51:57;;;;;;;0.73;0.30;;;15.00;99.90;;;;;;5034104;28;20204;-79
2021/05/17 08:54:24;;;;;;;1.00;0.57;;;15.10;99.90;;;;;;5034664;28;20196;-79
2021/05/17 08:56:50;;;;;;;0.40;0.40;;;15.10;99.90;;;;;;5032908;28;20214;-78
2021/05/17 08:59:19;;;;;;;0.43;0.43;;;15.10;99.90;;;;;;5033201;28;20240;-79
2021/05/17 09:01:46;;;;;;;1.00;0.60;;;15.20;99.90;;;;;;5034179;27;20207;-78
2021/05/17 09:04:14;;;;;;;0.53;0.50;;;15.10;99.90;;;;;;5036726;28;20197;-79
2021/05/17 09:06:42;;;;;;;1.03;0.67;;;15.10;99.90;;;;;;5038189;28;20292;-79
2021/05/17 09:09:23;;;;;;;0.63;0.60;;;15.30;99.90;;;;;;5033169;28;20204;-79
2021/05/17 09:11:50;;;;;;;1.33;0.50;;;15.40;99.90;;;;;;5024011;28;20426;-82
2021/05/17 09:14:17;;;;;;;0.60;0.50;;;15.60;99.90;;;;;;5025893;28;20221;-80
2021/05/17 09:16:45;;;;;;;0.37;0.37;;;15.70;99.90;;;;;;5024963;28;20606;-80
2021/05/17 09:19:12;;;;;;;0.53;0.47;;;16.00;99.90;;;;;;5024402;28;20201;-80
2021/05/17 09:22:19;;;;;;;0.73;0.70;;;16.10;99.90;;;;;;5024560;28;20208;-79
2021/05/17 09:24:49;;;;;;;0.83;0.40;;;16.20;99.90;;;;;;5022443;28;20257;-80
2021/05/17 09:27:17;;;;;;;0.40;0.40;;;16.30;99.90;;;;;;5022548;28;20205;-80
2021/05/17 09:29:46;;;;;;;1.53;0.40;;;16.20;99.90;;;;;;5027859;28;20205;-80
2021/05/17 09:32:17;;;;;;;1.23;0.53;;;16.00;99.90;;;;;;5030677;28;20209;-80
2021/05/17 09:34:45;;;;;;;0.30;0.30;;;15.90;99.90;;;;;;5030249;28;21001;-80
2021/05/17 09:37:12;;;;;;;0.90;0.40;;;15.90;99.90;;;;;;5029659;28;20618;-81
2021/05/17 09:39:48;;;;;;;0.83;0.40;;;15.90;99.90;;;;;;5030221;28;20223;-80
2021/05/17 09:42:15;;;;;;;0.37;0.37;;;16.00;99.90;;;;;;5030634;28;20193;-81
2021/05/17 09:44:46;;;;;;;0.37;0.37;;;16.10;99.90;;;;;;5030804;27;20253;-80
2021/05/17 09:47:14;;;;;;;0.50;0.50;;;16.30;99.90;;;;;;5030344;28;20549;-81
2021/05/17 09:49:42;;;;;;;1.80;0.43;;;16.50;99.90;;;;;;5030723;28;20326;-80
2021/05/17 09:52:12;;;;;;;0.67;0.50;;;16.40;99.90;;;;;;5032728;28;20607;-80
2021/05/17 09:54:52;;;;;;;1.67;0.80;;;16.20;99.90;;;;;;5033203;28;20276;-80
2021/05/17 09:57:19;;;;;;;2.47;0.50;;;16.10;99.90;;;;;;5033450;28;20192;-80
2021/05/17 09:59:47;;;;;;;0.70;0.70;;;16.20;99.90;;;;;;5034968;28;20604;-80
2021/05/17 10:02:39;;;;;;;1.03;0.50;;;16.30;99.90;;;;;;5025344;28;20205;-80
2021/05/17 10:05:25;;;;;;;0.97;0.40;;;16.50;99.90;;;;;;5027794;28;20303;-80
2021/05/17 10:07:53;;;;;;;0.77;0.43;;;16.40;99.90;;;;;;5036790;28;20213;-80
2021/05/17 10:10:22;;;;;;;2.43;0.70;;;16.20;99.90;;;;;;5037686;28;20227;-80
2021/05/17 10:12:48;;;;;;;0.63;0.60;;;16.10;99.90;;;;;;5038015;28;20232;-83
2021/05/17 10:15:17;;;;;;;0.40;0.40;;;16.20;99.90;;;;;;5033393;28;20236;-82
2021/05/17 10:17:44;;;;;;;0.40;0.30;;;16.40;99.90;;;;;;5037379;28;20205;-80
2021/05/17 10:20:14;;;;;;;1.23;0.30;;;16.70;99.90;;;;;;5042740;28;20216;-80
2021/05/17 10:22:41;;;;;;;1.53;0.70;;;16.90;99.90;;;;;;5037373;28;20880;-80
2021/05/17 10:25:09;;;;;;;1.07;0.40;;;17.10;99.90;;;;;;5038847;28;20267;-80
2021/05/17 10:27:39;;;;;;;0.70;0.40;;;17.10;99.90;;;;;;5038450;28;20200;-80
2021/05/17 10:30:08;;;;;;;0.43;0.30;;;17.00;99.90;;;;;;5038530;28;20273;-81
2021/05/17 10:32:46;;;;;;;0.77;0.63;;;16.90;99.90;;;;;;5037444;28;20204;-80
2021/05/17 10:35:19;;;;;;;1.57;0.40;;;16.90;99.90;;;;;;5027368;28;20238;-79
2021/05/17 10:37:46;;;;;;;1.17;0.60;;;16.90;99.90;;;;;;5036065;28;20197;-80
2021/05/17 10:40:34;;;;;;;1.27;0.63;;;16.90;99.90;;;;;;5035975;28;20244;-80
2021/05/17 10:43:11;;;;;;;2.30;0.60;;;17.10;99.90;;;;;;5026899;28;20654;-80
2021/05/17 10:48:28;;;;;;;0.67;0.40;;;17.30;99.90;;;;;;5038147;28;20204;-80
2021/05/17 10:51:14;;;;;;;1.70;0.40;;;17.20;99.90;;;;;;5036302;28;20200;-80
2021/05/17 10:53:45;;;;;;;1.40;0.57;;;17.10;99.90;;;;;;5038133;28;20331;-80
2021/05/17 10:56:14;;;;;;;0.83;0.30;;;17.00;99.90;;;;;;5027143;28;20197;-81
2021/05/17 11:01:55;;;;;;;2.03;0.50;;;17.10;99.90;;;;;;5026725;28;20188;-78
2021/05/17 11:04:33;;;;;;;0.50;0.50;;;17.30;99.90;;;;;;5027037;28;20194;-78
2021/05/17 11:07:19;;;;;;;1.40;0.60;;;17.40;99.90;;;;;;5033669;28;20227;-79
2021/05/17 11:09:51;;;;;;;0.67;0.37;;;17.60;99.90;;;;;;5034240;28;20196;-81
2021/05/17 11:12:55;;;;;;;1.53;0.47;;;17.70;99.90;;;;;;5035698;28;20193;-79
2021/05/17 11:15:22;;;;;;;1.77;0.53;;;17.90;99.90;;;;;;5036809;28;20231;-79
2021/05/17 11:18:03;;;;;;;1.60;0.37;;;18.20;99.90;;;;;;5037409;28;20339;-78
2021/05/17 11:20:48;;;;;;;0.40;0.40;;;18.50;99.90;;;;;;5037118;28;20205;-78
2021/05/17 11:23:17;;;;;;;1.80;0.20;;;18.80;99.90;;;;;;5037502;28;20240;-79
2021/05/17 11:25:49;;;;;;;0.40;0.40;;;18.80;99.90;;;;;;5036445;28;20221;-78
2021/05/17 11:28:16;;;;;;;1.43;0.33;;;18.70;99.90;;;;;;5036100;28;20193;-78
2021/05/17 11:30:44;;;;;;;1.17;0.20;;;18.90;99.90;;;;;;5038495;28;20200;-78
2021/05/17 11:33:15;;;;;;;0.27;0.27;;;19.30;99.90;;;;;;5035389;28;20225;-78
2021/05/17 11:36:01;;;;;;;0.23;0.23;;;19.50;99.90;;;;;;5036877;28;20209;-78
2021/05/17 11:38:28;;;;;;;0.70;0.33;;;19.60;97.80;;;;;;5037776;28;20201;-78
2021/05/17 11:40:54;;;;;;;1.23;0.47;;;19.70;98.30;;;;;;5037274;28;20192;-78
2021/05/17 11:43:23;;;;;;;0.67;0.40;;;19.70;97.70;;;;;;5037246;28;20201;-78
2021/05/17 11:45:49;;;;;;;0.40;0.40;;;19.90;99.90;;;;;;5036837;28;20638;-78
2021/05/17 11:48:15;;;;;;;0.57;0.50;;;20.10;98.60;;;;;;5035692;28;20205;-78
2021/05/17 11:50:43;;;;;;;1.10;0.43;;;20.30;98.90;;;;;;5036415;28;20256;-77
2021/05/17 11:53:15;;;;;;;0.60;0.50;;;20.20;98.20;;;;;;5034805;28;20325;-78
2021/05/17 11:55:50;;;;;;;0.60;0.40;;;20.10;98.30;;;;;;5035895;28;20209;-78
2021/05/17 11:58:22;;;;;;;0.40;0.40;;;19.80;98.10;;;;;;5037225;28;20799;-78
2021/05/17 12:00:49;;;;;;;1.13;0.47;;;19.30;99.10;;;;;;5037159;28;20193;-78
2021/05/17 12:03:15;;;;;;;1.23;0.40;;;19.50;99.90;;;;;;5034675;28;20538;-78
2021/05/17 12:05:41;;;;;;;1.40;0.40;;;19.80;99.90;;;;;;5035500;27;20223;-78
2021/05/17 12:08:10;;;;;;;0.50;0.40;;;19.90;97.50;;;;;;5033798;28;20199;-78
2021/05/17 12:10:37;;;;;;;2.03;0.60;;;19.90;97.60;;;;;;5034700;28;20237;-78
2021/05/17 12:13:11;;;;;;;0.33;0.30;;;19.90;97.50;;;;;;5035196;28;20249;-78
2021/05/17 12:15:38;;;;;;;1.27;0.60;;;20.00;98.00;;;;;;5034568;28;20327;-78
2021/05/17 12:18:09;;;;;;;0.80;0.40;;;20.00;97.30;;;;;;5035071;28;20211;-78
2021/05/17 12:20:35;;;;;;;0.60;0.60;;;20.00;96.10;;;;;;5036922;28;20570;-78
2021/05/17 12:23:01;;;;;;;0.83;0.50;;;19.60;96.10;;;;;;5038316;28;20200;-78
2021/05/17 12:25:27;;;;;;;0.53;0.50;;;19.60;97.00;;;;;;5035328;28;20224;-78
2021/05/17 12:27:54;;;;;;;1.00;0.30;;;19.60;95.70;;;;;;5034217;28;20205;-78
2021/05/17 12:30:22;;;;;;;4.00;0.57;;;19.90;96.00;;;;;;5037568;28;20537;-78
2021/05/17 12:32:50;;;;;;;1.90;0.60;;;20.30;96.00;;;;;;5034318;28;20240;-78
2021/05/17 12:35:24;;;;;;;0.80;0.50;;;20.50;95.50;;;;;;5034406;28;20222;-79
2021/05/17 12:37:52;;;;;;;0.37;0.37;;;20.40;94.60;;;;;;5037015;28;20196;-78
2021/05/17 12:40:37;;;;;;;0.80;0.40;;;20.40;95.00;;;;;;5033483;28;20231;-78
2021/05/17 12:43:10;;;;;;;1.07;0.60;;;20.70;95.80;;;;;;5025768;28;20200;-78
2021/05/17 12:45:40;;;;;;;0.70;0.57;;;21.10;94.50;;;;;;5033634;28;20231;-77
2021/05/17 12:48:09;;;;;;;0.83;0.70;;;21.20;93.60;;;;;;5036250;28;20192;-78
2021/05/17 12:50:36;;;;;;;2.57;0.90;;;21.20;93.00;;;;;;5034003;28;20197;-78
2021/05/17 12:53:06;;;;;;;0.43;0.40;;;21.30;93.20;;;;;;5037083;27;20196;-80
2021/05/17 12:55:40;;;;;;;0.47;0.47;;;21.60;93.80;;;;;;5033919;28;20197;-79
2021/05/17 12:58:07;;;;;;;0.93;0.60;;;21.80;94.40;;;;;;5035760;28;20413;-78
2021/05/17 13:00:49;;;;;;;2.33;0.70;;;22.00;93.40;;;;;;5036576;28;20207;-78
2021/05/17 13:03:18;;;;;;;3.53;0.63;;;21.80;93.10;;;;;;5036312;28;20188;-78
2021/05/17 13:05:57;;;;;;;1.10;0.70;;;21.70;93.20;;;;;;5038442;28;20235;-78
2021/05/17 13:08:28;;;;;;;0.50;0.50;;;21.30;93.80;;;;;;5043901;28;20192;-79
2021/05/17 13:10:59;;;;;;;1.57;0.50;;;21.00;94.10;;;;;;5030836;28;20208;-79
2021/05/17 13:13:51;;;;;;;0.70;0.50;;;20.80;94.90;;;;;;5036106;28;20557;-78